Time;durP1;ratioP1;P1;durP2;ratioP2;P2;SDS_P1;SDS_P2;PMS_P1;PMS_P2;Temp;Humidity;BMP_temperature;BMP_pressure;BME280_temperature;BME280_humidity;BME280_pressure;Samples;Min_cycle;Max_cycle;Signal;HPM_P1;HPM_P2
2023/10/12 00:02:13;;;;;;;12.15;4.28;;;11.60;99.90;;;;;;4991556;28;20154;-60
2023/10/12 00:05:00;;;;;;;16.27;4.78;;;11.60;99.90;;;;;;4991778;28;20454;-59
2023/10/12 00:07:34;;;;;;;18.40;4.38;;;11.60;99.90;;;;;;4977205;28;20411;-62
2023/10/12 00:12:41;;;;;;;11.07;4.55;;;11.60;99.90;;;;;;4984071;28;20041;-60
2023/10/12 00:15:23;;;;;;;12.90;4.18;;;11.60;99.90;;;;;;4985289;28;20460;-59
2023/10/12 00:17:58;;;;;;;10.20;3.75;;;11.50;99.90;;;;;;4991842;28;20049;-59
2023/10/12 00:22:59;;;;;;;8.98;3.67;;;11.30;99.90;;;;;;4985817;28;20047;-59
2023/10/12 00:25:26;;;;;;;11.52;4.32;;;11.20;99.90;;;;;;4990559;28;20043;-60
2023/10/12 00:27:53;;;;;;;12.30;3.40;;;11.10;99.90;;;;;;4986627;28;20027;-60
2023/10/12 00:30:20;;;;;;;11.48;4.05;;;11.10;99.90;;;;;;4990720;28;20092;-59
2023/10/12 00:32:48;;;;;;;8.23;4.03;;;11.00;99.90;;;;;;4982900;28;20402;-60
2023/10/12 00:35:17;;;;;;;;;;;10.90;99.90;;;;;;4992303;28;20053;-58
2023/10/12 00:37:43;;;;;;;;;;;10.90;99.90;;;;;;4990188;28;19922;-59
2023/10/12 00:43:12;;;;;;;10.93;4.80;;;10.90;99.90;;;;;;4977541;28;20057;-60
2023/10/12 00:45:39;;;;;;;17.27;5.40;;;11.20;99.90;;;;;;4982365;28;20046;-58
2023/10/12 00:48:08;;;;;;;14.93;5.05;;;11.30;99.90;;;;;;4991375;28;20129;-58
2023/10/12 00:50:36;;;;;;;15.60;5.65;;;11.40;99.90;;;;;;4987719;28;20050;-60
2023/10/12 00:55:47;;;;;;;14.10;5.10;;;11.30;99.90;;;;;;4990302;28;19922;-58
2023/10/12 00:58:15;;;;;;;9.75;5.05;;;11.40;99.90;;;;;;4990076;28;20054;-60
2023/10/12 01:00:45;;;;;;;15.00;4.85;;;11.30;99.90;;;;;;4985009;28;20038;-60
2023/10/12 01:03:31;;;;;;;14.15;4.60;;;11.30;99.90;;;;;;4995124;28;20038;-59
2023/10/12 01:08:42;;;;;;;6.32;3.63;;;11.20;99.90;;;;;;4993626;28;20035;-58
2023/10/12 01:11:20;;;;;;;12.05;3.67;;;10.80;99.90;;;;;;4993481;28;20064;-60
2023/10/12 01:16:54;;;;;;;13.07;4.07;;;10.50;99.90;;;;;;4984451;28;20150;-59
2023/10/12 01:19:22;;;;;;;12.75;3.97;;;10.40;99.90;;;;;;4990112;28;20101;-60
2023/10/12 01:21:56;;;;;;;14.18;3.55;;;10.30;99.90;;;;;;4986084;28;20065;-60
2023/10/12 01:24:31;;;;;;;9.23;3.92;;;10.30;99.90;;;;;;4992946;28;20058;-59
2023/10/12 01:26:59;;;;;;;13.10;4.15;;;10.30;99.90;;;;;;4988454;28;20062;-59
2023/10/12 01:29:27;;;;;;;8.68;4.00;;;10.40;99.90;;;;;;4991935;28;20121;-59
2023/10/12 01:34:44;;;;;;;5.78;3.38;;;10.40;99.90;;;;;;4992169;28;20066;-59
2023/10/12 01:37:24;;;;;;;6.78;3.40;;;10.40;99.90;;;;;;4987651;28;20097;-59
2023/10/12 01:39:58;;;;;;;11.30;3.42;;;10.40;99.90;;;;;;4985820;28;20402;-60
2023/10/12 01:42:41;;;;;;;7.30;3.97;;;10.40;99.90;;;;;;4987461;28;20050;-60
2023/10/12 01:45:19;;;;;;;9.48;4.15;;;10.50;99.90;;;;;;4994042;28;20064;-60
2023/10/12 01:48:33;;;;;;;7.60;3.40;;;10.40;99.90;;;;;;4992469;28;20042;-57
2023/10/12 01:50:40;;;;;;;8.75;3.53;;;10.40;99.90;;;;;;4981427;28;20492;-59
2023/10/12 01:55:52;;;;;;;6.30;3.20;;;10.00;99.90;;;;;;4978187;28;20518;-60
2023/10/12 01:58:24;;;;;;;7.32;3.63;;;9.80;99.90;;;;;;4985075;28;20411;-60
2023/10/12 02:00:51;;;;;;;10.90;3.85;;;9.70;99.90;;;;;;4984418;28;20050;-58
2023/10/12 02:05:59;;;;;;;5.90;3.20;;;9.70;99.90;;;;;;4978343;28;20049;-59
2023/10/12 02:08:32;;;;;;;10.05;4.43;;;9.70;99.90;;;;;;4983150;28;20511;-60
2023/10/12 02:11:06;;;;;;;6.63;3.78;;;9.80;99.90;;;;;;4993311;28;20432;-59
2023/10/12 02:13:34;;;;;;;9.35;3.90;;;9.80;99.90;;;;;;4983618;28;20085;-60
2023/10/12 02:16:02;;;;;;;9.25;3.92;;;9.80;99.90;;;;;;4987706;28;20049;-58
2023/10/12 02:18:30;;;;;;;7.10;4.22;;;9.80;99.90;;;;;;4984112;28;20134;-60
2023/10/12 02:23:39;;;;;;;11.95;4.00;;;9.80;99.90;;;;;;4991232;28;20049;-60
2023/10/12 02:26:12;;;;;;;9.82;4.00;;;9.90;99.90;;;;;;4993552;28;20050;-60
2023/10/12 02:28:40;;;;;;;8.20;3.50;;;9.90;99.90;;;;;;4989596;28;20380;-59
2023/10/12 02:31:07;;;;;;;;;;;9.90;99.90;;;;;;4986570;28;20042;-60
2023/10/12 02:33:36;;;;;;;11.35;3.53;;;9.90;99.90;;;;;;4987036;28;19929;-60
2023/10/12 02:36:09;;;;;;;10.63;4.35;;;9.90;99.90;;;;;;4990665;28;20397;-60
2023/10/12 02:38:36;;;;;;;10.50;3.78;;;9.90;99.90;;;;;;4984840;28;20046;-57
2023/10/12 02:41:03;;;;;;;10.57;3.58;;;9.90;99.90;;;;;;4991392;28;20046;-60
2023/10/12 02:43:32;;;;;;;7.85;4.05;;;9.80;99.90;;;;;;4984551;28;20438;-58
2023/10/12 02:46:05;;;;;;;10.50;4.05;;;9.70;99.90;;;;;;4989480;28;20081;-59
2023/10/12 02:48:36;;;;;;;11.63;4.10;;;9.70;99.90;;;;;;4992980;28;20431;-58
2023/10/12 02:51:06;;;;;;;8.18;3.80;;;9.70;99.90;;;;;;4991425;28;20488;-60
2023/10/12 02:53:34;;;;;;;7.88;3.60;;;9.70;99.90;;;;;;4980472;28;20039;-59
2023/10/12 02:56:02;;;;;;;11.88;3.80;;;9.70;99.90;;;;;;4990304;28;20137;-60
2023/10/12 02:58:29;;;;;;;13.80;3.90;;;9.70;99.90;;;;;;4992435;28;20047;-59
2023/10/12 03:01:12;;;;;;;7.70;3.55;;;9.70;99.90;;;;;;4991034;28;20047;-58
2023/10/12 03:03:48;;;;;;;9.45;3.67;;;9.70;99.90;;;;;;4984332;28;20078;-59
2023/10/12 03:06:23;;;;;;;8.57;3.70;;;9.50;99.90;;;;;;4985165;28;20061;-60
2023/10/12 03:11:35;;;;;;;11.00;3.53;;;9.50;99.90;;;;;;4992780;28;20074;-59
2023/10/12 03:14:13;;;;;;;7.78;3.78;;;9.60;99.90;;;;;;4976213;28;20423;-60
2023/10/12 03:16:43;;;;;;;11.85;3.85;;;9.60;99.90;;;;;;4989532;28;20057;-60
2023/10/12 03:19:17;;;;;;;9.93;4.20;;;9.50;99.90;;;;;;4991194;28;20046;-60
2023/10/12 03:21:48;;;;;;;6.85;3.72;;;9.40;99.90;;;;;;4991038;28;20050;-59
2023/10/12 03:24:16;;;;;;;9.05;3.80;;;9.40;99.90;;;;;;4990790;28;20495;-60
2023/10/12 03:26:55;;;;;;;13.75;3.63;;;9.30;99.90;;;;;;4987980;28;20054;-59
2023/10/12 03:29:25;;;;;;;10.70;3.45;;;9.40;99.90;;;;;;4991744;28;20043;-59
2023/10/12 03:31:53;;;;;;;11.00;3.72;;;9.40;99.90;;;;;;4990086;28;20065;-59
2023/10/12 03:37:01;;;;;;;9.65;3.83;;;9.40;99.90;;;;;;4990955;28;20487;-58
2023/10/12 03:39:29;;;;;;;7.57;3.70;;;9.30;99.90;;;;;;4991062;28;20042;-59
2023/10/12 03:42:39;;;;;;;11.25;4.07;;;9.30;99.90;;;;;;4990996;28;20179;-58
2023/10/12 03:47:16;;;;;;;9.48;3.50;;;9.30;99.90;;;;;;4991157;28;20130;-58
2023/10/12 03:52:28;;;;;;;11.63;4.25;;;9.30;99.90;;;;;;4990876;28;20038;-60
2023/10/12 04:02:53;;;;;;;11.68;3.92;;;9.20;99.90;;;;;;4990133;28;20070;-59
2023/10/12 04:05:34;;;;;;;9.70;4.60;;;9.10;99.90;;;;;;4990529;28;20045;-59
2023/10/12 04:11:15;;;;;;;11.55;4.03;;;9.20;99.90;;;;;;4988721;28;20042;-59
2023/10/12 04:16:27;;;;;;;12.65;4.47;;;9.30;99.90;;;;;;4989847;28;20097;-59
2023/10/12 04:21:33;;;;;;;14.20;5.30;;;9.10;99.90;;;;;;4989031;28;20038;-59
2023/10/12 04:27:50;;;;;;;9.30;4.75;;;9.00;99.90;;;;;;4988143;28;20046;-59
2023/10/12 04:29:39;;;;;;;11.57;5.07;;;9.10;99.90;;;;;;4985177;28;20089;-58
2023/10/12 04:32:37;;;;;;;11.88;5.35;;;9.10;99.90;;;;;;4980363;28;20042;-59
2023/10/12 04:35:11;;;;;;;14.07;4.88;;;9.30;99.90;;;;;;4993108;28;20044;-59
2023/10/12 04:37:38;;;;;;;14.07;4.55;;;9.40;99.90;;;;;;4995482;28;20065;-59
2023/10/12 04:40:32;;;;;;;10.45;4.50;;;9.50;99.90;;;;;;4984600;28;20051;-60
2023/10/12 04:42:53;;;;;;;8.60;4.72;;;9.40;99.90;;;;;;4992793;28;20038;-56
2023/10/12 04:47:48;;;;;;;16.23;6.78;;;9.30;99.90;;;;;;4988219;28;20076;-58
2023/10/12 04:50:27;;;;;;;15.30;5.68;;;9.30;99.90;;;;;;4994946;28;20061;-58
2023/10/12 04:53:09;;;;;;;17.27;5.45;;;9.40;99.90;;;;;;4983550;28;20503;-59
2023/10/12 04:55:36;;;;;;;16.17;5.68;;;9.50;99.90;;;;;;4991590;28;20122;-59
2023/10/12 04:58:32;;;;;;;13.38;5.40;;;9.70;99.90;;;;;;4984502;28;20117;-59
2023/10/12 05:01:18;;;;;;;15.15;5.60;;;9.80;99.90;;;;;;4990719;28;20047;-59
2023/10/12 05:04:07;;;;;;;10.40;4.82;;;9.90;99.90;;;;;;4985536;28;20050;-59
2023/10/12 05:06:35;;;;;;;17.30;5.72;;;10.00;99.90;;;;;;4993753;28;20038;-59
2023/10/12 05:09:10;;;;;;;13.52;4.97;;;10.00;99.90;;;;;;4990558;28;20058;-59
2023/10/12 05:11:39;;;;;;;14.50;5.25;;;10.00;99.90;;;;;;4994314;28;20073;-60
2023/10/12 05:14:15;;;;;;;13.65;4.97;;;10.00;99.90;;;;;;4986871;28;20380;-59
2023/10/12 05:16:45;;;;;;;13.88;5.38;;;10.00;99.90;;;;;;4986268;28;20042;-59
2023/10/12 05:19:12;;;;;;;13.82;4.55;;;10.00;99.90;;;;;;4983037;28;20046;-59
2023/10/12 05:21:39;;;;;;;8.20;3.58;;;9.90;99.90;;;;;;4989894;28;20490;-60
2023/10/12 05:24:08;;;;;;;9.85;4.13;;;9.70;99.90;;;;;;4986823;28;20050;-60
2023/10/12 05:26:37;;;;;;;12.52;4.55;;;9.40;99.90;;;;;;4984694;28;20042;-60
2023/10/12 05:32:06;;;;;;;13.30;5.30;;;9.20;99.90;;;;;;4993859;28;20046;-59
2023/10/12 05:39:50;;;;;;;10.57;4.80;;;9.20;99.90;;;;;;4989255;28;20122;-58
2023/10/12 05:42:22;;;;;;;13.75;5.60;;;9.40;99.90;;;;;;4993833;28;20038;-60
2023/10/12 05:44:50;;;;;;;10.82;5.13;;;9.60;99.90;;;;;;4989682;28;20491;-60
2023/10/12 05:47:25;;;;;;;13.55;5.65;;;9.60;99.90;;;;;;4983638;28;20045;-58
2023/10/12 05:49:52;;;;;;;16.17;5.57;;;9.70;99.90;;;;;;4992596;28;20034;-60
2023/10/12 05:52:18;;;;;;;11.95;5.07;;;9.80;99.90;;;;;;4990754;28;20089;-60
2023/10/12 05:54:45;;;;;;;19.45;5.45;;;9.90;99.90;;;;;;4993696;28;20097;-58
2023/10/12 05:57:25;;;;;;;17.88;5.28;;;9.90;99.90;;;;;;4991269;28;20105;-60
2023/10/12 05:59:51;;;;;;;13.63;4.97;;;9.90;99.90;;;;;;4991919;28;20403;-59
2023/10/12 06:02:18;;;;;;;16.50;4.95;;;10.00;99.90;;;;;;4993661;28;20093;-59
2023/10/12 06:04:47;;;;;;;13.77;5.03;;;10.00;99.90;;;;;;4994166;28;20053;-58
2023/10/12 06:07:14;;;;;;;12.90;4.75;;;10.10;99.90;;;;;;4985997;28;20093;-58
2023/10/12 06:09:41;;;;;;;13.25;5.05;;;10.20;99.90;;;;;;4973359;28;20830;-58
2023/10/12 06:12:09;;;;;;;13.50;5.10;;;10.20;99.90;;;;;;4991486;28;20073;-58
2023/10/12 06:14:38;;;;;;;15.70;5.13;;;10.30;99.90;;;;;;4991198;28;20045;-59
2023/10/12 06:17:05;;;;;;;12.30;4.70;;;10.30;99.90;;;;;;4988387;28;20043;-58
2023/10/12 06:19:36;;;;;;;12.40;5.25;;;10.40;99.90;;;;;;4993284;28;20048;-60
2023/10/12 06:22:32;;;;;;;15.73;4.82;;;10.50;99.90;;;;;;4993015;28;20042;-59
2023/10/12 06:25:00;;;;;;;11.95;4.68;;;10.60;99.90;;;;;;4989607;28;20043;-60
2023/10/12 06:27:30;;;;;;;13.43;5.75;;;10.70;99.90;;;;;;4993351;28;20038;-59
2023/10/12 06:30:06;;;;;;;11.38;4.90;;;10.80;99.90;;;;;;4993050;28;20077;-59
2023/10/12 06:32:32;;;;;;;20.27;4.82;;;10.90;99.90;;;;;;4987301;28;20540;-60
2023/10/12 06:45:49;;;;;;;15.65;5.68;;;11.20;99.90;;;;;;4993432;28;20074;-59
2023/10/12 06:51:11;;;;;;;13.52;4.75;;;11.30;99.90;;;;;;4988547;28;20167;-59
2023/10/12 06:53:52;;;;;;;11.43;5.45;;;11.50;99.90;;;;;;4984960;28;20150;-60
2023/10/12 07:04:29;;;;;;;11.50;4.70;;;11.80;99.90;;;;;;4981808;28;20043;-56
2023/10/12 07:06:56;;;;;;;11.40;4.72;;;11.90;99.90;;;;;;4981767;28;20061;-60
2023/10/12 07:09:40;;;;;;;17.02;4.95;;;11.90;99.90;;;;;;4985945;28;20034;-59
2023/10/12 07:12:10;;;;;;;13.65;4.57;;;12.00;99.90;;;;;;4991729;28;20042;-59
2023/10/12 07:14:39;;;;;;;9.70;4.85;;;12.10;99.90;;;;;;4992872;28;20395;-60
2023/10/12 07:17:09;;;;;;;17.42;5.15;;;12.10;99.90;;;;;;4984516;28;20114;-60
2023/10/12 07:19:46;;;;;;;19.05;5.35;;;12.20;99.90;;;;;;4992550;28;20056;-59
2023/10/12 07:22:18;;;;;;;12.98;5.68;;;12.20;99.90;;;;;;4992227;28;20045;-59
2023/10/12 07:24:52;;;;;;;16.83;6.47;;;12.30;99.90;;;;;;4985345;28;20042;-59
2023/10/12 07:27:29;;;;;;;25.45;8.07;;;12.40;99.90;;;;;;4984735;28;20042;-60
2023/10/12 07:32:40;;;;;;;14.48;5.82;;;12.60;99.90;;;;;;4988151;28;20499;-60
2023/10/12 07:35:11;;;;;;;14.85;5.15;;;12.70;99.90;;;;;;4991010;28;20050;-60
2023/10/12 07:37:42;;;;;;;18.52;5.90;;;12.80;99.90;;;;;;4985683;28;20062;-60
2023/10/12 07:40:19;;;;;;;13.60;5.32;;;12.80;99.90;;;;;;4991238;28;20138;-60
2023/10/12 07:42:49;;;;;;;11.25;5.07;;;12.90;99.90;;;;;;4984614;28;20096;-60
2023/10/12 07:45:17;;;;;;;22.48;5.97;;;13.00;99.90;;;;;;4992348;28;20056;-59
2023/10/12 07:47:58;;;;;;;13.35;4.90;;;13.00;99.90;;;;;;4991260;28;20089;-59
2023/10/12 07:50:28;;;;;;;16.83;4.85;;;13.10;99.90;;;;;;4990879;28;20113;-60
2023/10/12 07:53:21;;;;;;;14.75;4.40;;;13.10;99.90;;;;;;4992149;28;20117;-60
2023/10/12 07:56:00;;;;;;;11.23;4.20;;;13.10;99.90;;;;;;4987798;28;20077;-60
2023/10/12 07:58:30;;;;;;;13.10;4.72;;;13.10;99.90;;;;;;4988941;28;20129;-57
2023/10/12 08:03:50;;;;;;;11.73;4.68;;;13.10;99.90;;;;;;4978632;28;20050;-57
2023/10/12 08:06:19;;;;;;;18.08;5.18;;;13.10;99.90;;;;;;4989440;28;20507;-58
2023/10/12 08:08:47;;;;;;;12.70;4.53;;;13.10;99.90;;;;;;4995597;28;20045;-59
2023/10/12 08:11:28;;;;;;;14.07;5.13;;;13.10;99.90;;;;;;4994926;28;20038;-59
2023/10/12 08:13:55;;;;;;;13.65;4.60;;;13.30;99.90;;;;;;4988205;28;20038;-58
2023/10/12 08:16:26;;;;;;;10.38;4.50;;;13.40;99.90;;;;;;4985425;28;20043;-60
2023/10/12 08:21:25;;;;;;;15.05;5.38;;;13.70;99.90;;;;;;4986789;28;20065;-60
2023/10/12 08:23:58;;;;;;;17.67;4.93;;;13.70;99.90;;;;;;4995767;28;20145;-60
2023/10/12 08:26:35;;;;;;;13.35;5.15;;;13.80;99.90;;;;;;4984364;28;20047;-59
2023/10/12 08:29:09;;;;;;;17.40;5.27;;;14.10;99.90;;;;;;4984770;28;20358;-57
2023/10/12 08:31:43;;;;;;;18.00;4.78;;;14.30;99.90;;;;;;4995644;28;20298;-59
2023/10/12 08:34:41;;;;;;;11.13;5.00;;;14.40;99.90;;;;;;4979123;28;20127;-60
2023/10/12 08:37:17;;;;;;;11.93;5.05;;;14.70;99.90;;;;;;4995503;28;20042;-60
2023/10/12 08:39:50;;;;;;;15.43;4.93;;;15.00;99.90;;;;;;4981046;28;20074;-60
2023/10/12 08:45:09;;;;;;;18.52;4.72;;;15.40;99.90;;;;;;4994812;28;20054;-60
2023/10/12 08:50:14;;;;;;;10.60;4.85;;;15.70;99.90;;;;;;4987328;28;20046;-60
2023/10/12 08:52:50;;;;;;;13.40;4.93;;;15.80;99.90;;;;;;4995150;28;20065;-60
2023/10/12 08:55:19;;;;;;;13.90;4.53;;;15.80;99.90;;;;;;4995466;28;20042;-60
2023/10/12 08:58:14;;;;;;;13.35;5.65;;;15.70;99.90;;;;;;4995336;28;20050;-59
2023/10/12 09:00:44;;;;;;;11.98;4.40;;;15.60;99.90;;;;;;4989150;28;20410;-60
2023/10/12 09:05:51;;;;;;;12.63;4.65;;;15.40;99.90;;;;;;4995337;28;20042;-59
2023/10/12 09:10:54;;;;;;;11.82;4.93;;;15.70;99.90;;;;;;4994617;28;20050;-60
2023/10/12 09:13:24;;;;;;;12.07;4.32;;;15.80;99.90;;;;;;4994521;28;20050;-60
2023/10/12 09:15:56;;;;;;;12.50;4.40;;;15.90;99.90;;;;;;4986892;28;20113;-58
2023/10/12 09:18:29;;;;;;;9.77;4.28;;;16.10;99.90;;;;;;4986763;28;20070;-58
2023/10/12 09:23:58;;;;;;;12.30;4.28;;;16.20;99.90;;;;;;4991972;28;20069;-60
2023/10/12 09:26:30;;;;;;;7.78;4.03;;;16.30;99.90;;;;;;4983275;28;20066;-59
2023/10/12 09:36:45;;;;;;;11.52;4.53;;;16.80;99.90;;;;;;4990840;28;20514;-60
2023/10/12 09:39:14;;;;;;;10.13;4.47;;;17.00;99.90;;;;;;4982673;28;20043;-60
2023/10/12 09:41:54;;;;;;;11.18;4.38;;;17.20;99.90;;;;;;4994002;28;20250;-60
2023/10/12 09:44:27;;;;;;;10.27;4.55;;;17.20;99.90;;;;;;4994104;28;20130;-60
2023/10/12 09:46:59;;;;;;;10.05;4.22;;;17.20;99.90;;;;;;4988103;28;20089;-60
2023/10/12 09:49:29;;;;;;;11.95;4.82;;;17.40;99.90;;;;;;4977172;28;20062;-60
2023/10/12 09:52:00;;;;;;;12.10;3.70;;;17.60;99.90;;;;;;4993581;28;20443;-59
2023/10/12 09:54:45;;;;;;;11.00;3.83;;;17.60;99.90;;;;;;4987410;28;20435;-60
2023/10/12 09:57:26;;;;;;;6.97;3.65;;;17.70;99.90;;;;;;4994022;28;20056;-58
2023/10/12 09:59:59;;;;;;;15.35;4.15;;;17.80;99.90;;;;;;4993884;28;20049;-60
2023/10/12 10:02:34;;;;;;;13.02;3.90;;;17.90;99.90;;;;;;4983581;28;20106;-60
2023/10/12 10:05:24;;;;;;;15.70;4.28;;;18.00;99.90;;;;;;4990036;28;20060;-59
2023/10/12 10:07:58;;;;;;;10.00;4.25;;;18.10;99.90;;;;;;4989755;28;20142;-60
2023/10/12 10:10:32;;;;;;;16.48;4.78;;;18.30;99.90;;;;;;4987012;28;20092;-59
2023/10/12 10:13:12;;;;;;;16.88;4.30;;;18.30;99.90;;;;;;4993114;28;20053;-59
2023/10/12 10:15:55;;;;;;;9.88;4.05;;;18.30;99.90;;;;;;4993304;28;20038;-60
2023/10/12 10:18:27;;;;;;;11.82;4.10;;;18.30;99.90;;;;;;4985475;28;20366;-60
2023/10/12 10:21:01;;;;;;;10.93;3.63;;;18.40;99.90;;;;;;4993659;28;20101;-60
2023/10/12 10:23:35;;;;;;;13.80;4.35;;;18.40;99.90;;;;;;4993619;28;20050;-61
2023/10/12 10:26:19;;;;;;;9.52;3.83;;;18.50;99.90;;;;;;4979206;28;20051;-60
2023/10/12 10:28:58;;;;;;;15.27;3.78;;;18.60;99.90;;;;;;4987172;28;20112;-61
2023/10/12 10:31:31;;;;;;;10.25;4.05;;;18.80;99.90;;;;;;4992589;28;20480;-59
2023/10/12 10:34:05;;;;;;;10.95;4.18;;;19.00;99.90;;;;;;4985392;28;20041;-60
2023/10/12 10:36:35;;;;;;;14.80;3.90;;;19.20;99.90;;;;;;4993197;28;20034;-60
2023/10/12 10:41:54;;;;;;;7.82;4.10;;;19.60;99.90;;;;;;4984528;28;20038;-60
2023/10/12 10:44:23;;;;;;;12.32;4.05;;;19.70;99.90;;;;;;4993474;28;20050;-59
2023/10/12 10:46:57;;;;;;;15.77;4.57;;;20.00;99.90;;;;;;4993146;28;20431;-59
2023/10/12 10:49:31;;;;;;;15.00;4.28;;;20.20;99.90;;;;;;4993019;28;20051;-61
2023/10/12 10:54:37;;;;;;;12.15;4.13;;;20.50;99.90;;;;;;4993015;28;20510;-60
2023/10/12 10:57:24;;;;;;;10.13;3.60;;;20.70;99.90;;;;;;4992913;28;20105;-59
2023/10/12 10:59:52;;;;;;;14.88;3.80;;;20.70;99.90;;;;;;4986814;28;20109;-61
2023/10/12 11:02:20;;;;;;;;;;;20.50;99.90;;;;;;4993304;28;20053;-59
2023/10/12 11:04:51;;;;;;;11.07;2.95;;;20.20;99.90;;;;;;4984812;28;19922;-60
2023/10/12 11:07:17;;;;;;;10.15;3.78;;;20.00;99.90;;;;;;4987844;28;20507;-60
2023/10/12 11:12:23;;;;;;;12.77;4.35;;;19.90;99.90;;;;;;4990513;28;20070;-60
2023/10/12 11:14:58;;;;;;;13.55;3.65;;;20.20;99.90;;;;;;4992913;28;20038;-59
2023/10/12 11:17:35;;;;;;;9.65;4.18;;;20.40;99.90;;;;;;4991835;28;20042;-61
2023/10/12 11:20:26;;;;;;;13.68;3.80;;;20.50;99.90;;;;;;4989561;28;20050;-60
2023/10/12 11:22:59;;;;;;;11.48;3.50;;;20.60;99.90;;;;;;4985324;28;20046;-60
2023/10/12 11:25:28;;;;;;;9.85;3.42;;;20.80;99.90;;;;;;4984211;28;20042;-61
2023/10/12 11:27:55;;;;;;;12.77;3.72;;;20.90;99.90;;;;;;4992628;28;20049;-61
2023/10/12 11:30:34;;;;;;;9.95;3.85;;;20.80;99.90;;;;;;4987491;28;20101;-60
2023/10/12 11:33:09;;;;;;;10.70;4.05;;;20.80;99.90;;;;;;4992631;28;20073;-60
2023/10/12 11:35:45;;;;;;;9.02;3.83;;;20.80;99.90;;;;;;4983873;28;20048;-61
2023/10/12 11:38:17;;;;;;;13.90;3.80;;;20.90;99.90;;;;;;4984785;28;20399;-61
2023/10/12 11:40:51;;;;;;;11.05;3.83;;;21.00;99.90;;;;;;4991296;28;20046;-60
2023/10/12 11:43:21;;;;;;;11.43;3.50;;;21.00;99.90;;;;;;4981425;28;20053;-60
2023/10/12 11:46:01;;;;;;;11.07;3.65;;;21.10;99.90;;;;;;4981076;28;20039;-60
2023/10/12 11:48:30;;;;;;;10.82;3.75;;;21.20;99.90;;;;;;4982335;28;20070;-60
2023/10/12 11:51:04;;;;;;;11.20;4.57;;;21.30;99.90;;;;;;4991935;28;20483;-60
2023/10/12 11:53:31;;;;;;;11.38;4.00;;;21.40;99.90;;;;;;4985029;28;20125;-61
2023/10/12 11:56:04;;;;;;;10.90;3.83;;;21.50;99.90;;;;;;4992198;28;20042;-60
2023/10/12 11:58:32;;;;;;;9.65;3.75;;;21.40;99.90;;;;;;4983755;28;20482;-61
2023/10/12 12:01:00;;;;;;;11.88;4.28;;;21.50;99.90;;;;;;4991839;28;20073;-61
2023/10/12 12:03:27;;;;;;;16.55;3.92;;;21.50;99.90;;;;;;4982201;28;20069;-61
2023/10/12 12:05:54;;;;;;;12.70;3.67;;;21.70;99.90;;;;;;4992043;28;20038;-61
2023/10/12 12:08:25;;;;;;;;;;;21.70;99.90;;;;;;4984236;28;20039;-60
2023/10/12 12:13:20;;;;;;;8.93;3.58;;;21.80;99.90;;;;;;4992261;28;20048;-60
2023/10/12 12:15:48;;;;;;;12.07;3.50;;;22.00;99.90;;;;;;4987437;28;20051;-61
2023/10/12 12:18:19;;;;;;;11.45;4.25;;;22.10;99.90;;;;;;4986853;28;20129;-60
2023/10/12 12:20:48;;;;;;;9.50;3.70;;;22.10;99.90;;;;;;4990791;28;20072;-60
2023/10/12 12:23:17;;;;;;;12.65;3.72;;;22.00;99.90;;;;;;4988571;28;20045;-61
2023/10/12 12:25:44;;;;;;;7.53;3.03;;;21.90;99.90;;;;;;4988083;28;20507;-60
2023/10/12 12:28:16;;;;;;;14.38;4.45;;;21.90;99.90;;;;;;4987044;28;20050;-59
2023/10/12 12:30:46;;;;;;;16.70;4.57;;;22.20;99.90;;;;;;4987490;28;20043;-59
2023/10/12 12:33:24;;;;;;;12.18;3.78;;;22.30;99.90;;;;;;4988882;28;20034;-61
2023/10/12 12:36:00;;;;;;;8.45;3.80;;;22.40;99.90;;;;;;4984098;28;20422;-60
2023/10/12 12:38:44;;;;;;;11.07;4.00;;;22.50;99.90;;;;;;4991857;28;20046;-60
2023/10/12 12:41:23;;;;;;;19.33;4.18;;;22.70;99.90;;;;;;4991393;28;20046;-58
2023/10/12 12:43:51;;;;;;;12.27;3.75;;;22.80;99.90;;;;;;4980302;28;20081;-60
2023/10/12 12:46:19;;;;;;;11.40;3.95;;;23.20;99.90;;;;;;4991795;28;20042;-60
2023/10/12 12:48:50;;;;;;;9.18;3.65;;;23.50;99.90;;;;;;4991001;28;20643;-61
2023/10/12 12:51:18;;;;;;;11.52;3.90;;;23.70;99.50;;;;;;4991481;28;20117;-61
2023/10/12 12:53:47;;;;;;;11.38;3.78;;;23.70;97.70;;;;;;4989773;28;20117;-60
2023/10/12 12:56:14;;;;;;;9.60;3.83;;;23.70;97.90;;;;;;4988367;28;20094;-61
2023/10/12 12:58:49;;;;;;;10.27;3.28;;;23.70;99.70;;;;;;4985294;28;20724;-59
2023/10/12 13:01:18;;;;;;;11.48;3.53;;;23.70;99.10;;;;;;4995006;28;20487;-58
2023/10/12 13:03:46;;;;;;;13.77;3.90;;;23.70;99.40;;;;;;4994412;28;20403;-61
2023/10/12 13:06:16;;;;;;;15.65;4.40;;;23.50;99.90;;;;;;4986916;28;20122;-60
2023/10/12 13:08:43;;;;;;;10.70;3.70;;;23.30;99.90;;;;;;4986206;28;20073;-60
2023/10/12 13:11:11;;;;;;;;;;;22.90;99.90;;;;;;4994971;28;20042;-61
2023/10/12 13:13:41;;;;;;;9.57;3.85;;;22.80;99.90;;;;;;4993076;28;19922;-60
2023/10/12 13:16:14;;;;;;;10.35;3.50;;;22.60;99.90;;;;;;4982896;28;20050;-61
2023/10/12 13:18:46;;;;;;;11.60;3.42;;;22.40;99.90;;;;;;4993257;28;20403;-59
2023/10/12 13:21:16;;;;;;;14.73;3.88;;;22.30;99.90;;;;;;4983358;28;20059;-59
2023/10/12 13:23:44;;;;;;;11.55;3.55;;;22.40;99.90;;;;;;4993966;28;20054;-59
2023/10/12 13:26:17;;;;;;;10.75;3.47;;;22.40;99.90;;;;;;4988317;28;20129;-61
2023/10/12 13:28:45;;;;;;;11.93;3.90;;;22.60;99.90;;;;;;4994639;28;20081;-61
2023/10/12 13:31:12;;;;;;;;;;;22.60;99.90;;;;;;4994649;28;20056;-60
2023/10/12 13:33:41;;;;;;;10.13;3.25;;;22.40;99.90;;;;;;4992429;28;19922;-61
2023/10/12 13:36:09;;;;;;;10.02;3.90;;;22.10;99.90;;;;;;4993153;28;20046;-60
2023/10/12 13:38:37;;;;;;;12.68;3.63;;;21.90;99.90;;;;;;4994490;28;20046;-60
2023/10/12 13:41:10;;;;;;;10.85;4.18;;;21.90;99.90;;;;;;4986136;28;20046;-58
2023/10/12 13:43:38;;;;;;;9.63;3.72;;;22.10;99.90;;;;;;4990508;28;20551;-61
2023/10/12 13:46:08;;;;;;;;;;;22.40;99.90;;;;;;4994832;28;20399;-59
2023/10/12 13:48:37;;;;;;;12.60;4.32;;;22.40;99.90;;;;;;4994288;28;20427;-60
2023/10/12 13:51:08;;;;;;;19.90;4.00;;;22.50;99.90;;;;;;4986178;28;20104;-60
2023/10/12 13:53:36;;;;;;;12.23;3.95;;;22.60;99.90;;;;;;4991830;28;20074;-61
2023/10/12 13:56:06;;;;;;;15.73;4.63;;;22.70;99.90;;;;;;4986212;28;20048;-60
2023/10/12 13:58:34;;;;;;;9.10;3.75;;;22.90;99.90;;;;;;4985206;28;20043;-60
2023/10/12 14:01:03;;;;;;;10.48;3.90;;;23.10;99.90;;;;;;4986356;28;20049;-61
2023/10/12 14:03:35;;;;;;;12.35;4.55;;;23.20;99.90;;;;;;4993753;28;20050;-61
2023/10/12 14:06:06;;;;;;;17.08;4.38;;;23.20;99.90;;;;;;4993153;28;20100;-61
2023/10/12 14:08:35;;;;;;;11.27;3.67;;;23.10;99.90;;;;;;4992300;28;20049;-61
2023/10/12 14:11:06;;;;;;;10.80;4.00;;;23.10;99.90;;;;;;4974226;28;20054;-61
2023/10/12 14:13:34;;;;;;;16.77;4.55;;;23.20;99.90;;;;;;4981929;28;20050;-61
2023/10/12 14:16:00;;;;;;;12.02;3.58;;;23.10;99.90;;;;;;4990924;28;20050;-61
2023/10/12 14:18:28;;;;;;;10.38;3.45;;;23.00;99.90;;;;;;4990005;28;20077;-61
2023/10/12 14:20:55;;;;;;;8.80;3.22;;;23.00;99.90;;;;;;4985208;28;20039;-61
2023/10/12 14:23:26;;;;;;;12.43;4.00;;;22.90;99.90;;;;;;4985746;28;20137;-58
2023/10/12 14:25:57;;;;;;;13.55;3.63;;;22.90;99.90;;;;;;4982821;28;20046;-61
2023/10/12 14:28:31;;;;;;;13.80;3.70;;;22.90;99.90;;;;;;4993725;28;20415;-59
2023/10/12 14:30:58;;;;;;;11.48;3.75;;;22.70;99.90;;;;;;4988954;28;20066;-61
2023/10/12 14:33:30;;;;;;;;;;;22.50;99.90;;;;;;4986041;28;20538;-61
2023/10/12 14:35:57;;;;;;;11.98;4.30;;;22.30;99.90;;;;;;4976539;28;19956;-61
2023/10/12 14:38:24;;;;;;;16.75;4.50;;;22.20;99.90;;;;;;4989616;28;20491;-61
2023/10/12 14:40:51;;;;;;;12.60;4.10;;;22.20;99.90;;;;;;4987842;28;20053;-61
2023/10/12 14:43:21;;;;;;;12.65;4.10;;;22.20;99.90;;;;;;4992714;28;20057;-60
2023/10/12 14:45:55;;;;;;;13.55;3.83;;;22.10;99.90;;;;;;4992832;28;20104;-60
2023/10/12 14:48:23;;;;;;;11.00;3.97;;;22.00;99.90;;;;;;4988928;28;20129;-61
2023/10/12 14:51:12;;;;;;;10.45;4.22;;;21.90;99.90;;;;;;4990580;28;20042;-60
2023/10/12 14:53:44;;;;;;;12.15;3.70;;;21.90;99.90;;;;;;4982965;28;20101;-61
2023/10/12 14:56:14;;;;;;;7.85;3.75;;;21.80;99.90;;;;;;4987368;28;20410;-61
2023/10/12 14:58:41;;;;;;;7.93;3.63;;;21.60;99.90;;;;;;4992866;28;20042;-60
2023/10/12 15:01:14;;;;;;;9.55;3.80;;;21.30;99.90;;;;;;4987825;28;20073;-60
2023/10/12 15:03:42;;;;;;;16.73;3.80;;;21.10;99.90;;;;;;4992013;28;20042;-61
2023/10/12 15:06:12;;;;;;;6.30;2.97;;;20.90;99.90;;;;;;4983727;28;20463;-61
2023/10/12 15:08:40;;;;;;;8.85;3.50;;;20.80;99.90;;;;;;4984478;28;20433;-60
2023/10/12 15:11:07;;;;;;;12.15;3.88;;;20.60;99.90;;;;;;4985579;28;20072;-61
2023/10/12 15:13:37;;;;;;;10.88;3.28;;;20.50;99.90;;;;;;4992791;28;20050;-59
2023/10/12 15:16:12;;;;;;;9.52;3.30;;;20.30;99.90;;;;;;4987662;28;20138;-60
2023/10/12 15:18:41;;;;;;;8.60;3.22;;;20.20;99.90;;;;;;4986113;28;20046;-60